Portada
METAR-TAF:

METAR-TAF

Aeroports :

Meridian Regional Airport (Key Field)

Meridian, Mississipí, Estats Units d'Amèrica

latitud: 32-20-17N, longitud: 088-44-52W, altitud: 90 m

Observació

L'informe es va fer fa 12 minuts, a les 12:58 UTC
Vent 3 kt del Nord
Temperatura 12°C
Humitat 76%
Pressió 1021 hPa
Visibilitat: 16.1 km
Cel cobert a una alçada de 6500 ft

METAR: KMEI 261258Z 36003KT 10SM OVC065 12/08 A3014 RMK AO2 SLP205 T01220083 $

Hora: 07:10 (13:10 UTC)

Pronòstic

L'informe es va fer fa 1 hora i 42 minuts, a les 11:28 UTC
Pronòstic vàlid del 26 a les 12 UTC al 27 a les 12 UTC
Vent 6 kt del Nord/Nord-Est
Visibilitat: 10 km
Cel ennuvolat a una alçada de 3000 ft

TAF: KMEI 261128Z 2612/2712 02006KT P6SM BKN030

Observacions i pronòstics meteorològics de més de 4000 aeroports (METAR i TAF).

Les estacions disponibles són els punts grocs i vermells al mapa.

Posi el ratolí al punt desitjat per veure el nom de l'estació.

Feu clic per veure les observacions i els pronòstics meteorològics.

Per canviar el mapa: feu clic els botons verds amb una creu de color negre per apropar; al botó verd amb un guió per allunyar la imatge; o en les fletxes verdes per a mapes adjacents.


METAR-TAF: